createdAt,value
2019-01-11T00:00:35.524Z,27.23
2019-01-11T00:01:35.569Z,26.49
2019-01-11T00:02:35.650Z,25.69
2019-01-11T00:03:35.679Z,25.10
2019-01-11T00:04:35.716Z,24.75
2019-01-11T00:05:35.772Z,24.47
2019-01-11T00:06:35.814Z,24.20
2019-01-11T00:07:35.874Z,23.92
2019-01-11T00:08:35.910Z,23.57
2019-01-11T00:09:35.942Z,23.43
2019-01-11T00:10:36.018Z,23.17
2019-01-11T00:11:36.107Z,23.07
2019-01-11T00:12:36.116Z,22.96
2019-01-11T00:13:36.153Z,22.89
2019-01-11T00:14:36.247Z,22.75
2019-01-11T00:15:36.232Z,22.69
2019-01-11T00:16:36.284Z,22.60
2019-01-11T00:17:36.329Z,22.80
2019-01-11T00:18:36.390Z,22.84
2019-01-11T00:19:36.447Z,22.83
2019-01-11T00:20:36.485Z,22.92
2019-01-11T00:21:36.541Z,22.89
2019-01-11T00:22:36.588Z,22.74
2019-01-11T00:23:36.724Z,22.67
2019-01-11T00:24:36.670Z,22.59
2019-01-11T00:25:36.728Z,22.57
2019-01-11T00:26:36.787Z,22.49
2019-01-11T00:27:36.807Z,22.52
2019-01-11T00:28:37.021Z,22.57
2019-01-11T00:29:36.899Z,22.50
2019-01-11T00:30:36.975Z,22.60
2019-01-11T00:31:37.011Z,22.46
2019-01-11T00:32:37.103Z,22.53
2019-01-11T00:33:37.138Z,22.49
2019-01-11T00:34:37.151Z,22.38
2019-01-11T00:35:37.211Z,22.27
2019-01-11T00:36:37.228Z,22.23
2019-01-11T00:37:37.337Z,22.28
2019-01-11T00:38:37.332Z,22.28
2019-01-11T00:39:37.399Z,22.16
2019-01-11T00:40:37.447Z,22.23
2019-01-11T00:41:37.530Z,22.16
2019-01-11T00:42:37.550Z,22.19
2019-01-11T00:43:37.595Z,22.13
2019-01-11T00:44:37.629Z,22.04
2019-01-11T00:45:37.665Z,21.99
2019-01-11T00:46:37.713Z,21.92
2019-01-11T00:47:37.804Z,21.82
2019-01-11T00:48:37.848Z,21.59
2019-01-11T00:49:37.846Z,21.60
2019-01-11T00:50:37.891Z,21.44
2019-01-11T00:51:37.955Z,21.36
2019-01-11T00:52:37.984Z,21.26
2019-01-11T00:53:38.046Z,21.30
2019-01-11T00:54:38.094Z,21.23
2019-01-11T00:55:38.103Z,21.11
2019-01-11T00:56:38.216Z,21.24
2019-01-11T00:57:38.200Z,21.19
2019-01-11T00:58:38.259Z,21.20
2019-01-11T00:59:38.370Z,20.99
2019-01-11T01:00:38.334Z,20.93
2019-01-11T01:01:38.385Z,20.90
2019-01-11T01:02:38.445Z,21.06
2019-01-11T01:03:38.468Z,21.04
2019-01-11T01:04:38.495Z,20.90
2019-01-11T01:05:38.613Z,20.90
2019-01-11T01:06:38.677Z,20.99
2019-01-11T01:07:38.666Z,21.02
2019-01-11T01:08:38.714Z,21.09
2019-01-11T01:09:38.755Z,21.08
2019-01-11T01:10:38.805Z,21.06
2019-01-11T01:11:38.825Z,21.17
2019-01-11T01:12:38.894Z,21.13
2019-01-11T01:13:38.981Z,21.23
2019-01-11T01:14:38.983Z,21.21
2019-01-11T01:15:39.006Z,21.06
2019-01-11T01:16:39.052Z,21.04
2019-01-11T01:17:39.108Z,20.95
2019-01-11T01:18:39.161Z,20.95
2019-01-11T01:19:39.246Z,20.99
2019-01-11T01:20:39.244Z,21.02
2019-01-11T01:21:39.308Z,21.06
2019-01-11T01:22:39.346Z,21.16
2019-01-11T01:23:39.389Z,21.06
2019-01-11T01:24:39.441Z,21.08
2019-01-11T01:25:39.481Z,21.14
2019-01-11T01:26:39.539Z,21.26
2019-01-11T01:27:39.569Z,21.36
2019-01-11T01:28:39.603Z,21.34
2019-01-11T01:29:39.675Z,21.44
2019-01-11T01:30:39.698Z,21.48
2019-01-11T01:31:39.759Z,21.41
2019-01-11T01:32:39.814Z,21.26
2019-01-11T01:33:39.856Z,21.16
2019-01-11T01:34:39.937Z,21.14
2019-01-11T01:35:39.942Z,20.96
2019-01-11T01:36:40.046Z,20.93
2019-01-11T01:37:40.051Z,20.98
2019-01-11T01:38:40.072Z,21.14
2019-01-11T01:39:40.146Z,21.01
2019-01-11T01:40:40.180Z,21.05
2019-01-11T01:41:40.292Z,20.99
2019-01-11T01:42:40.269Z,21.02
2019-01-11T01:43:40.325Z,20.93
2019-01-11T01:44:40.362Z,20.93
2019-01-11T01:45:40.396Z,20.95
2019-01-11T01:46:40.451Z,20.89
2019-01-11T01:47:40.519Z,20.90
2019-01-11T01:48:40.553Z,20.90
2019-01-11T01:49:40.662Z,21.01
2019-01-11T01:50:40.643Z,21.04
2019-01-11T01:51:40.685Z,21.05
2019-01-11T01:52:40.726Z,21.08
2019-01-11T01:53:40.759Z,21.17
2019-01-11T01:54:40.821Z,21.17
2019-01-11T01:55:40.864Z,21.04
2019-01-11T01:56:40.927Z,21.05
2019-01-11T01:57:40.956Z,20.93
2019-01-11T01:58:41.014Z,21.04
2019-01-11T01:59:41.047Z,21.05
2019-01-11T02:00:41.103Z,21.05
2019-01-11T02:01:41.172Z,21.06
2019-01-11T02:02:41.184Z,21.02
2019-01-11T02:03:41.293Z,21.08
2019-01-11T02:04:41.284Z,21.11
2019-01-11T02:05:41.330Z,21.09
2019-01-11T02:06:41.379Z,21.04
2019-01-11T02:07:41.444Z,21.20
2019-01-11T02:08:41.472Z,21.04
2019-01-11T02:09:42.975Z,21.02
2019-01-11T02:10:41.575Z,21.08
2019-01-11T02:11:41.608Z,21.04
2019-01-11T02:12:41.663Z,21.06
2019-01-11T02:13:41.702Z,21.08
2019-01-11T02:14:41.772Z,21.16
2019-01-11T02:15:41.808Z,21.04
2019-01-11T02:16:41.837Z,21.01
2019-01-11T02:17:41.934Z,21.05
2019-01-11T02:18:41.939Z,21.02
2019-01-11T02:19:41.992Z,20.96
2019-01-11T02:20:42.014Z,20.91
2019-01-11T02:21:42.060Z,20.95
2019-01-11T02:22:42.130Z,20.89
2019-01-11T02:23:42.183Z,20.96
2019-01-11T02:24:42.209Z,20.98
2019-01-11T02:25:46.136Z,20.96
2019-01-11T02:26:42.295Z,21.08
2019-01-11T02:27:42.368Z,21.11
2019-01-11T02:28:42.387Z,21.06
2019-01-11T02:29:42.472Z,21.19
2019-01-11T02:30:42.539Z,21.05
2019-01-11T02:31:42.529Z,21.04
2019-01-11T02:32:42.575Z,20.98
2019-01-11T02:33:42.618Z,20.99
2019-01-11T02:34:42.719Z,21.01
2019-01-11T02:35:42.737Z,21.05
2019-01-11T02:36:42.819Z,20.98
2019-01-11T02:37:42.834Z,20.93
2019-01-11T02:38:42.907Z,20.83
2019-01-11T02:39:42.918Z,20.83
2019-01-11T02:40:42.956Z,20.86
2019-01-11T02:41:42.991Z,20.86
2019-01-11T02:42:43.106Z,20.91
2019-01-11T02:43:43.096Z,20.95
2019-01-11T02:44:43.145Z,20.96
2019-01-11T02:45:43.207Z,20.89
2019-01-11T02:46:43.262Z,20.98
2019-01-11T02:47:43.272Z,20.93
2019-01-11T02:48:43.342Z,20.91
2019-01-11T02:49:43.374Z,20.93
2019-01-11T02:50:43.414Z,20.81
2019-01-11T02:51:43.520Z,20.83
2019-01-11T02:52:43.513Z,20.77
2019-01-11T02:53:43.620Z,20.96
2019-01-11T02:54:43.623Z,20.93
2019-01-11T02:55:43.674Z,20.99
2019-01-11T02:56:43.701Z,20.98
2019-01-11T02:57:43.771Z,21.02
2019-01-11T02:58:43.841Z,20.93
2019-01-11T02:59:43.824Z,21.01
2019-01-11T03:00:43.891Z,20.96
2019-01-11T03:01:43.939Z,20.90
2019-01-11T03:02:43.978Z,20.96
2019-01-11T03:03:44.103Z,20.96
2019-01-11T03:04:44.075Z,21.05
2019-01-11T03:05:44.179Z,21.08
2019-01-11T03:06:44.181Z,21.16
2019-01-11T03:07:44.249Z,21.05
2019-01-11T03:08:44.276Z,21.06
2019-01-11T03:09:44.336Z,21.11
2019-01-11T03:10:44.370Z,21.13
2019-01-11T03:11:44.411Z,21.06
2019-01-11T03:12:44.451Z,21.11
2019-01-11T03:13:44.492Z,21.09
2019-01-11T03:14:44.566Z,21.11
2019-01-11T03:15:44.619Z,21.06
2019-01-11T03:16:44.646Z,20.90
2019-01-11T03:17:44.676Z,20.98
2019-01-11T03:18:44.730Z,20.91
2019-01-11T03:19:47.922Z,20.95
2019-01-11T03:20:44.836Z,21.11
2019-01-11T03:21:44.883Z,21.02
2019-01-11T03:22:44.941Z,21.04
2019-01-11T03:23:44.966Z,21.04
2019-01-11T03:24:45.004Z,21.09
2019-01-11T03:25:45.080Z,21.13
2019-01-11T03:26:45.157Z,21.13
2019-01-11T03:27:45.171Z,21.21
2019-01-11T03:28:45.231Z,21.20
2019-01-11T03:29:45.273Z,21.19
2019-01-11T03:30:45.350Z,21.24
2019-01-11T03:31:45.349Z,21.26
2019-01-11T03:32:45.404Z,21.24
2019-01-11T03:33:45.435Z,21.30
2019-01-11T03:34:45.501Z,21.27
2019-01-11T03:35:45.533Z,21.23
2019-01-11T03:36:45.592Z,21.29
2019-01-11T03:37:45.659Z,21.34
2019-01-11T03:38:45.716Z,21.38
2019-01-11T03:39:45.721Z,21.41
2019-01-11T03:40:45.819Z,21.30
2019-01-11T03:41:45.815Z,21.35
2019-01-11T03:42:46.014Z,21.26
2019-01-11T03:43:45.968Z,21.36
2019-01-11T03:44:45.967Z,21.38
2019-01-11T03:45:46.002Z,21.48
2019-01-11T03:46:46.076Z,21.50
2019-01-11T03:47:46.101Z,21.48
2019-01-11T03:48:46.157Z,21.48
2019-01-11T03:49:46.194Z,21.48
2019-01-11T03:50:46.233Z,21.51
2019-01-11T03:51:46.303Z,21.57
2019-01-11T03:52:46.329Z,21.64
2019-01-11T03:53:46.389Z,21.66
2019-01-11T03:54:46.472Z,21.66
2019-01-11T03:55:46.469Z,21.64
2019-01-11T03:56:46.526Z,21.64
2019-01-11T03:57:46.585Z,21.71
2019-01-11T03:58:46.632Z,21.75
2019-01-11T03:59:46.669Z,21.75
2019-01-11T04:00:46.720Z,21.85
2019-01-11T04:01:46.757Z,21.83
2019-01-11T04:02:46.787Z,21.79
2019-01-11T04:03:46.852Z,21.85
2019-01-11T04:04:46.942Z,21.78
2019-01-11T04:05:46.996Z,21.79
2019-01-11T04:06:46.971Z,21.76
2019-01-11T04:07:47.040Z,21.83
2019-01-11T04:08:47.080Z,21.81
2019-01-11T04:09:47.143Z,21.81
2019-01-11T04:10:47.184Z,21.79
2019-01-11T04:11:47.295Z,21.82
2019-01-11T04:12:47.281Z,21.92
2019-01-11T04:13:47.331Z,21.83
2019-01-11T04:14:47.405Z,21.85
2019-01-11T04:15:47.475Z,21.90
2019-01-11T04:16:47.458Z,21.92
2019-01-11T04:17:47.560Z,21.88
2019-01-11T04:18:47.554Z,21.94
2019-01-11T04:19:47.594Z,21.99
2019-01-11T04:20:47.668Z,22.01
2019-01-11T04:21:47.701Z,22.06
2019-01-11T04:22:47.730Z,22.01
2019-01-11T04:23:47.762Z,22.01
2019-01-11T04:24:47.851Z,22.04
2019-01-11T04:25:47.887Z,22.06
2019-01-11T04:26:48.090Z,22.06
2019-01-11T04:27:48.024Z,22.02
2019-01-11T04:28:48.015Z,22.01
2019-01-11T04:29:48.081Z,22.14
2019-01-11T04:30:48.122Z,22.14
2019-01-11T04:31:48.155Z,22.09
2019-01-11T04:32:48.220Z,22.12
2019-01-11T04:33:48.242Z,22.09
2019-01-11T04:34:48.302Z,22.09
2019-01-11T04:35:48.360Z,22.10
2019-01-11T04:36:48.378Z,22.13
2019-01-11T04:37:48.443Z,22.10
2019-01-11T04:38:48.486Z,22.16
2019-01-11T04:39:48.545Z,22.10
2019-01-11T04:40:48.578Z,22.16
2019-01-11T04:41:48.626Z,22.10
2019-01-11T04:42:48.674Z,22.13
2019-01-11T04:43:48.765Z,22.17
2019-01-11T04:44:48.757Z,22.16
2019-01-11T04:45:48.866Z,22.17
2019-01-11T04:46:48.884Z,22.27
2019-01-11T04:47:48.929Z,22.23
2019-01-11T04:48:49.002Z,22.27
2019-01-11T04:49:49.024Z,22.23
2019-01-11T04:50:49.185Z,22.23
2019-01-11T04:51:49.106Z,22.23
2019-01-11T04:52:49.155Z,22.27
2019-01-11T04:53:49.212Z,22.22
2019-01-11T04:54:49.258Z,22.22
2019-01-11T04:55:49.293Z,22.23
2019-01-11T04:56:49.381Z,22.25
2019-01-11T04:57:49.375Z,22.34
2019-01-11T04:58:49.431Z,22.34
2019-01-11T04:59:49.483Z,22.23
2019-01-11T05:00:49.510Z,22.20
2019-01-11T05:01:49.620Z,22.19
2019-01-11T05:02:49.657Z,22.19
2019-01-11T05:03:49.677Z,22.17
2019-01-11T05:04:49.718Z,22.13
2019-01-11T05:05:49.758Z,22.14
2019-01-11T05:06:49.841Z,22.10
2019-01-11T05:07:49.847Z,22.07
2019-01-11T05:08:50.055Z,22.06
2019-01-11T05:09:49.919Z,22.02
2019-01-11T05:10:50.012Z,22.01
2019-01-11T05:11:50.038Z,22.10
2019-01-11T05:12:50.088Z,22.04
2019-01-11T05:13:50.119Z,22.04
2019-01-11T05:14:50.169Z,22.10
2019-01-11T05:15:50.225Z,22.02
2019-01-11T05:16:50.255Z,22.06
2019-01-11T05:17:50.333Z,22.02
2019-01-11T05:18:50.404Z,21.98
2019-01-11T05:19:50.416Z,21.97
2019-01-11T05:20:50.465Z,21.92
2019-01-11T05:21:50.499Z,21.99
2019-01-11T05:22:50.552Z,21.92
2019-01-11T05:23:50.611Z,21.97
2019-01-11T05:24:50.651Z,21.85
2019-01-11T05:25:50.703Z,21.91
2019-01-11T05:26:50.754Z,21.85
2019-01-11T05:27:50.790Z,21.83
2019-01-11T05:28:50.832Z,21.79
2019-01-11T05:29:50.875Z,21.90
2019-01-11T05:30:50.926Z,21.85
2019-01-11T05:31:50.997Z,21.83
2019-01-11T05:32:51.030Z,21.82
2019-01-11T05:33:51.098Z,21.88
2019-01-11T05:34:51.127Z,21.91
2019-01-11T05:35:51.183Z,21.88
2019-01-11T05:36:51.257Z,21.97
2019-01-11T05:37:51.272Z,21.95
2019-01-11T05:38:51.330Z,22.09
2019-01-11T05:39:51.369Z,22.04
2019-01-11T05:40:51.404Z,22.13
2019-01-11T05:41:51.458Z,22.07
2019-01-11T05:42:51.529Z,22.16
2019-01-11T05:43:51.549Z,22.20
2019-01-11T05:44:51.602Z,22.19
2019-01-11T05:45:51.657Z,22.17
2019-01-11T05:46:51.717Z,22.20
2019-01-11T05:47:51.744Z,22.20
2019-01-11T05:48:51.779Z,22.17
2019-01-11T05:49:51.825Z,22.17
2019-01-11T05:50:51.873Z,22.13
2019-01-11T05:51:51.933Z,22.13
2019-01-11T05:52:51.955Z,22.17
2019-01-11T05:53:52.023Z,22.04
2019-01-11T05:54:52.067Z,22.06
2019-01-11T05:55:52.157Z,21.98
2019-01-11T05:56:52.215Z,22.07
2019-01-11T05:57:52.201Z,22.07
2019-01-11T05:58:52.304Z,22.13
2019-01-11T05:59:52.303Z,22.09
2019-01-11T06:00:52.372Z,22.12
2019-01-11T06:01:52.407Z,22.14
2019-01-11T06:02:52.455Z,22.06
2019-01-11T06:03:52.490Z,22.06
2019-01-11T06:04:52.553Z,22.04
2019-01-11T06:05:52.575Z,21.95
2019-01-11T06:06:52.674Z,22.02
2019-01-11T06:07:52.724Z,22.09
2019-01-11T06:08:52.745Z,21.92
2019-01-11T06:09:52.778Z,21.92
2019-01-11T06:10:52.829Z,21.95
2019-01-11T06:11:52.880Z,21.92
2019-01-11T06:12:52.978Z,21.94
2019-01-11T06:13:53.056Z,21.92
2019-01-11T06:14:53.012Z,21.99
2019-01-11T06:15:53.071Z,21.98
2019-01-11T06:16:53.095Z,21.90
2019-01-11T06:17:53.167Z,21.83
2019-01-11T06:18:53.186Z,21.85
2019-01-11T06:19:53.255Z,21.91
2019-01-11T06:20:53.322Z,21.85
2019-01-11T06:21:53.348Z,21.81
2019-01-11T06:22:53.397Z,21.78
2019-01-11T06:23:53.437Z,21.76
2019-01-11T06:24:53.478Z,21.83
2019-01-11T06:25:53.545Z,21.81
2019-01-11T06:26:53.563Z,21.82
2019-01-11T06:27:53.622Z,21.71
2019-01-11T06:28:53.682Z,21.75
2019-01-11T06:29:53.712Z,21.72
2019-01-11T06:30:53.771Z,21.71
2019-01-11T06:31:53.812Z,21.79
2019-01-11T06:32:53.859Z,21.74
2019-01-11T06:33:53.913Z,21.67
2019-01-11T06:34:54.153Z,21.67
2019-01-11T06:35:53.986Z,21.74
2019-01-11T06:36:54.038Z,21.69
2019-01-11T06:37:54.113Z,21.71
2019-01-11T06:38:54.139Z,21.71
2019-01-11T06:39:54.189Z,21.67
2019-01-11T06:40:54.232Z,21.66
2019-01-11T06:41:54.308Z,21.71
2019-01-11T06:42:54.328Z,21.72
2019-01-11T06:43:54.410Z,21.79
2019-01-11T06:44:54.411Z,21.76
2019-01-11T06:45:54.476Z,21.79
2019-01-11T06:46:54.535Z,21.79
2019-01-11T06:47:54.573Z,21.81
2019-01-11T06:48:54.626Z,21.83
2019-01-11T06:49:54.794Z,21.76
2019-01-11T06:50:54.825Z,21.81
2019-01-11T06:51:54.761Z,21.88
2019-01-11T06:52:55.516Z,21.81
2019-01-11T06:53:54.862Z,21.82
2019-01-11T06:54:54.911Z,21.81
2019-01-11T06:55:54.935Z,21.78
2019-01-11T06:56:55.043Z,21.85
2019-01-11T06:57:55.042Z,21.81
2019-01-11T06:58:55.069Z,21.81
2019-01-11T06:59:55.140Z,21.76
2019-01-11T07:00:55.294Z,21.74
2019-01-11T07:01:55.271Z,21.79
2019-01-11T07:02:55.259Z,21.78
2019-01-11T07:03:55.335Z,21.76
2019-01-11T07:04:55.376Z,21.79
2019-01-11T07:05:55.410Z,21.75
2019-01-11T07:06:55.459Z,21.74
2019-01-11T07:07:55.518Z,21.78
2019-01-11T07:08:55.561Z,21.78
2019-01-11T07:09:55.609Z,21.78
2019-01-11T07:10:55.659Z,21.76
2019-01-11T07:11:55.714Z,21.81
2019-01-11T07:12:55.745Z,21.79
2019-01-11T07:13:55.795Z,21.83
2019-01-11T07:14:55.840Z,21.82
2019-01-11T07:15:55.863Z,21.81
2019-01-11T07:16:55.962Z,21.72
2019-01-11T07:17:56.000Z,21.72
2019-01-11T07:18:56.028Z,21.76
2019-01-11T07:19:56.060Z,21.75
2019-01-11T07:20:56.277Z,21.71
2019-01-11T07:21:56.160Z,21.71
2019-01-11T07:22:56.222Z,21.74
2019-01-11T07:23:56.276Z,21.59
2019-01-11T07:24:56.298Z,21.59
2019-01-11T07:25:56.354Z,21.56
2019-01-11T07:26:56.410Z,21.57
2019-01-11T07:27:56.442Z,21.59
2019-01-11T07:28:56.573Z,21.59
2019-01-11T07:29:56.596Z,21.63
2019-01-11T07:30:56.597Z,21.61
2019-01-11T07:31:56.641Z,21.56
2019-01-11T07:32:56.694Z,21.57
2019-01-11T07:33:56.733Z,21.59
2019-01-11T07:34:56.827Z,21.61
2019-01-11T07:35:56.821Z,21.69
2019-01-11T07:36:56.876Z,21.60
2019-01-11T07:37:56.915Z,21.69
2019-01-11T07:38:56.947Z,21.61
2019-01-11T07:39:57.007Z,21.61
2019-01-11T07:40:57.058Z,21.57
2019-01-11T07:41:57.122Z,21.60
2019-01-11T07:42:57.153Z,21.59
2019-01-11T07:43:57.210Z,21.57
2019-01-11T07:44:57.255Z,21.59
2019-01-11T07:45:57.307Z,21.56
2019-01-11T07:46:57.319Z,21.53
2019-01-11T07:47:57.396Z,21.61
2019-01-11T07:48:57.446Z,21.60
2019-01-11T07:49:57.482Z,21.69
2019-01-11T07:50:57.538Z,21.71
2019-01-11T07:51:57.592Z,21.64
2019-01-11T07:52:57.639Z,21.69
2019-01-11T07:53:57.687Z,21.69
2019-01-11T07:54:57.719Z,21.71
2019-01-11T07:55:57.782Z,21.64
2019-01-11T07:56:57.829Z,21.67
2019-01-11T07:57:57.849Z,21.72
2019-01-11T07:58:57.925Z,21.72
2019-01-11T07:59:57.967Z,21.64
2019-01-11T08:00:58.003Z,21.63
2019-01-11T08:01:58.033Z,21.66
2019-01-11T08:02:58.083Z,21.57
2019-01-11T08:03:58.141Z,21.60
2019-01-11T08:04:58.222Z,21.54
2019-01-11T08:05:58.228Z,21.57
2019-01-11T08:06:58.276Z,21.50
2019-01-11T08:07:58.333Z,21.50
2019-01-11T08:08:58.411Z,21.45
2019-01-11T08:09:58.419Z,21.48
2019-01-11T08:10:58.551Z,21.48
2019-01-11T08:11:58.503Z,21.45
2019-01-11T08:12:58.566Z,21.51
2019-01-11T08:13:58.614Z,21.42
2019-01-11T08:14:58.633Z,21.50
2019-01-11T08:15:58.706Z,21.50
2019-01-11T08:16:58.759Z,21.36
2019-01-11T08:17:58.809Z,21.35
2019-01-11T08:18:58.879Z,21.53
2019-01-11T08:19:58.919Z,21.38
2019-01-11T08:20:58.980Z,21.39
2019-01-11T08:21:58.986Z,21.36
2019-01-11T08:22:59.036Z,21.36
2019-01-11T08:23:59.081Z,21.38
2019-01-11T08:24:59.123Z,21.42
2019-01-11T08:25:59.208Z,21.41
2019-01-11T08:26:59.250Z,21.38
2019-01-11T08:27:59.244Z,21.41
2019-01-11T08:28:59.299Z,21.41
2019-01-11T08:29:59.355Z,21.41
2019-01-11T08:30:59.413Z,21.44
2019-01-11T08:31:59.444Z,21.41
2019-01-11T08:32:59.489Z,21.35
2019-01-11T08:33:59.587Z,21.36
2019-01-11T08:34:59.575Z,21.39
2019-01-11T08:35:59.681Z,21.38
2019-01-11T08:36:59.727Z,21.38
2019-01-11T08:37:59.724Z,21.45
2019-01-11T08:38:59.767Z,21.46
2019-01-11T08:39:59.814Z,21.53
2019-01-11T08:40:59.972Z,21.51
2019-01-11T08:41:59.926Z,21.53
2019-01-11T08:42:59.962Z,21.57
2019-01-11T08:44:00.005Z,21.54
2019-01-11T08:45:00.055Z,21.67
2019-01-11T08:46:00.094Z,21.71
2019-01-11T08:47:00.180Z,21.63
2019-01-11T08:48:00.207Z,21.64
2019-01-11T08:49:00.288Z,21.76
2019-01-11T08:50:00.302Z,21.81
2019-01-11T08:51:02.759Z,21.88
2019-01-11T08:52:00.372Z,21.82
2019-01-11T08:53:00.444Z,21.98
2019-01-11T08:54:00.492Z,22.10
2019-01-11T08:55:00.584Z,21.99
2019-01-11T08:56:00.557Z,22.07
2019-01-11T08:57:00.634Z,22.14
2019-01-11T08:58:00.672Z,22.22
2019-01-11T08:59:00.763Z,22.17
2019-01-11T09:00:00.807Z,22.16
2019-01-11T09:01:00.835Z,22.28
2019-01-11T09:02:00.861Z,22.23
2019-01-11T09:03:00.897Z,22.32
2019-01-11T09:04:00.972Z,22.37
2019-01-11T09:05:00.996Z,22.35
2019-01-11T09:06:01.080Z,22.43
2019-01-11T09:07:01.095Z,22.50
2019-01-11T09:08:01.180Z,22.49
2019-01-11T09:09:01.171Z,22.52
2019-01-11T09:10:01.249Z,22.53
2019-01-11T09:11:01.320Z,22.57
2019-01-11T09:12:01.336Z,22.65
2019-01-11T09:13:01.358Z,22.64
2019-01-11T09:14:01.476Z,22.54
2019-01-11T09:15:01.454Z,22.74
2019-01-11T09:16:01.514Z,22.69
2019-01-11T09:17:01.578Z,22.60
2019-01-11T09:18:01.627Z,22.62
2019-01-11T09:19:01.659Z,22.71
2019-01-11T09:20:01.748Z,22.83
2019-01-11T09:21:01.765Z,22.68
2019-01-11T09:22:01.795Z,22.75
2019-01-11T09:23:01.848Z,22.86
2019-01-11T09:24:01.900Z,22.77
2019-01-11T09:25:02.054Z,22.80
2019-01-11T09:26:02.033Z,22.83
2019-01-11T09:27:02.055Z,22.74
2019-01-11T09:28:02.094Z,22.78
2019-01-11T09:29:02.193Z,22.77
2019-01-11T09:30:02.225Z,22.74
2019-01-11T09:31:02.247Z,22.87
2019-01-11T09:32:02.314Z,22.75
2019-01-11T09:33:02.331Z,22.86
2019-01-11T09:34:02.389Z,22.84
2019-01-11T09:35:02.429Z,22.89
2019-01-11T09:36:02.470Z,22.80
2019-01-11T09:37:02.518Z,22.86
2019-01-11T09:38:02.606Z,22.84
2019-01-11T09:39:02.663Z,22.87
2019-01-11T09:40:02.678Z,22.93
2019-01-11T09:41:02.706Z,22.90
2019-01-11T09:42:02.756Z,23.01
2019-01-11T09:43:02.794Z,23.15
2019-01-11T09:44:02.850Z,23.31
2019-01-11T09:45:02.948Z,23.31
2019-01-11T09:46:02.947Z,23.49
2019-01-11T09:47:02.984Z,23.52
2019-01-11T09:48:03.073Z,23.58
2019-01-11T09:49:03.096Z,23.79
2019-01-11T09:50:03.187Z,23.97
2019-01-11T09:51:03.242Z,24.13
2019-01-11T09:52:03.254Z,24.26
2019-01-11T09:53:03.273Z,24.59
2019-01-11T09:54:03.348Z,24.94
2019-01-11T09:55:03.410Z,25.19
2019-01-11T09:56:03.459Z,25.31
2019-01-11T09:57:03.516Z,25.43
2019-01-11T09:58:03.527Z,25.64
2019-01-11T09:59:03.612Z,25.68
2019-01-11T10:00:03.653Z,25.72
2019-01-11T10:01:03.709Z,25.93
2019-01-11T10:02:03.778Z,26.32
2019-01-11T10:03:03.767Z,26.79
2019-01-11T10:04:03.848Z,27.05
2019-01-11T10:05:03.927Z,27.24
2019-01-11T10:06:03.987Z,27.39
2019-01-11T10:07:04.033Z,27.43
2019-01-11T10:08:04.028Z,27.32
2019-01-11T10:09:04.097Z,27.46
2019-01-11T10:10:04.150Z,27.38
2019-01-11T10:11:04.191Z,27.31
2019-01-11T10:12:04.254Z,27.39
2019-01-11T10:13:04.282Z,27.39
2019-01-11T10:14:04.343Z,27.28
2019-01-11T10:15:04.397Z,27.01
2019-01-11T10:16:04.464Z,26.94
2019-01-11T10:17:04.513Z,26.94
2019-01-11T10:18:04.568Z,26.72
2019-01-11T10:19:04.597Z,26.69
2019-01-11T10:20:04.660Z,26.62
2019-01-11T10:21:04.704Z,26.57
2019-01-11T10:22:04.767Z,26.50
2019-01-11T10:23:04.807Z,26.52
2019-01-11T10:24:04.875Z,26.36
2019-01-11T10:25:04.904Z,26.27
2019-01-11T10:26:04.986Z,26.27
2019-01-11T10:27:05.016Z,26.28
2019-01-11T10:28:05.070Z,26.42
2019-01-11T10:29:05.122Z,26.49
2019-01-11T10:30:05.165Z,26.79
2019-01-11T10:31:05.239Z,27.33
2019-01-11T10:32:05.258Z,27.62
2019-01-11T10:33:05.317Z,27.96
2019-01-11T10:34:05.394Z,28.04
2019-01-11T10:35:05.442Z,28.38
2019-01-11T10:36:05.506Z,28.46
2019-01-11T10:37:05.536Z,28.54
2019-01-11T10:38:05.604Z,28.87
2019-01-11T10:39:05.641Z,29.06
2019-01-11T10:40:05.718Z,29.16
2019-01-11T10:41:05.846Z,28.95
2019-01-11T10:42:05.810Z,28.82
2019-01-11T10:43:05.835Z,28.66
2019-01-11T10:44:05.888Z,28.48
2019-01-11T10:45:05.983Z,28.41
2019-01-11T10:46:06.001Z,28.35
2019-01-11T10:47:06.048Z,28.21
2019-01-11T10:48:06.122Z,28.07
2019-01-11T10:49:06.171Z,28.16
2019-01-11T10:50:06.219Z,28.33
2019-01-11T10:51:06.274Z,28.62
2019-01-11T10:52:06.316Z,29.18
2019-01-11T10:53:06.342Z,29.37
2019-01-11T10:54:06.418Z,29.40
2019-01-11T10:55:06.514Z,29.22
2019-01-11T10:56:06.517Z,29.19
2019-01-11T10:57:06.582Z,29.08
2019-01-11T10:58:06.669Z,29.28
2019-01-11T10:59:06.684Z,29.13
2019-01-11T11:00:06.728Z,29.28
2019-01-11T11:01:06.802Z,29.53
2019-01-11T11:02:06.839Z,29.79
2019-01-11T11:03:06.884Z,29.94
2019-01-11T11:04:06.951Z,30.27
2019-01-11T11:05:06.999Z,30.46
2019-01-11T11:06:07.063Z,30.57
2019-01-11T11:07:07.128Z,31.12
2019-01-11T11:08:07.239Z,31.54
2019-01-11T11:09:07.217Z,32.02
2019-01-11T11:10:07.283Z,32.51
2019-01-11T11:11:07.325Z,32.88
2019-01-11T11:12:07.381Z,32.96
2019-01-11T11:13:07.431Z,33.43
2019-01-11T11:14:07.478Z,34.13
2019-01-11T11:15:07.539Z,34.81
2019-01-11T11:16:07.592Z,35.30
2019-01-11T11:17:07.650Z,35.81
2019-01-11T11:18:07.704Z,35.91
2019-01-11T11:19:07.763Z,35.89
2019-01-11T11:20:07.826Z,36.26
2019-01-11T11:21:07.927Z,36.45
2019-01-11T11:22:07.945Z,36.77
2019-01-11T11:23:07.977Z,36.99
2019-01-11T11:24:08.064Z,37.21
2019-01-11T11:25:08.106Z,37.67
2019-01-11T11:26:08.145Z,37.77
2019-01-11T11:27:08.241Z,37.98
2019-01-11T11:28:08.267Z,38.32
2019-01-11T11:29:08.390Z,38.49
2019-01-11T11:30:08.385Z,38.60
2019-01-11T11:31:08.435Z,38.64
2019-01-11T11:32:08.497Z,38.49
2019-01-11T11:33:08.557Z,38.55
2019-01-11T11:34:08.626Z,38.58
2019-01-11T11:35:08.684Z,38.60
2019-01-11T11:36:08.762Z,38.57
2019-01-11T11:37:08.814Z,38.51
2019-01-11T11:38:08.890Z,38.22
2019-01-11T11:39:08.938Z,38.48
2019-01-11T11:40:09.001Z,38.51
2019-01-11T11:41:09.062Z,38.30
2019-01-11T11:42:09.113Z,38.45
2019-01-11T11:43:09.149Z,38.42
2019-01-11T11:44:09.209Z,38.67
2019-01-11T11:45:09.290Z,38.95
2019-01-11T11:46:09.381Z,39.42
2019-01-11T11:47:09.412Z,39.62
2019-01-11T11:48:09.471Z,39.83
2019-01-11T11:49:09.518Z,40.24
2019-01-11T11:50:09.582Z,40.53
2019-01-11T11:51:09.654Z,40.68
2019-01-11T11:52:09.757Z,40.86
2019-01-11T11:53:09.779Z,41.28
2019-01-11T11:54:09.839Z,41.41
2019-01-11T11:55:09.906Z,41.66
2019-01-11T11:56:10.175Z,41.85
2019-01-11T11:57:10.009Z,41.65
2019-01-11T11:58:10.098Z,41.58
2019-01-11T11:59:10.154Z,41.86
2019-01-11T12:00:10.225Z,41.65
2019-01-11T12:01:10.283Z,41.54
2019-01-11T12:02:10.327Z,41.70
2019-01-11T12:03:10.387Z,41.71
2019-01-11T12:04:10.456Z,41.91
2019-01-11T12:05:10.523Z,41.94
2019-01-11T12:06:10.559Z,41.61
2019-01-11T12:07:10.620Z,42.00
2019-01-11T12:08:10.682Z,42.03
2019-01-11T12:09:10.773Z,42.00
2019-01-11T12:10:10.829Z,41.98
2019-01-11T12:11:10.896Z,42.37
2019-01-11T12:12:10.933Z,42.75
2019-01-11T12:13:11.011Z,42.42
2019-01-11T12:14:11.103Z,42.57
2019-01-11T12:15:11.149Z,42.81
2019-01-11T12:16:11.248Z,42.63
2019-01-11T12:17:11.314Z,42.66
2019-01-11T12:18:11.319Z,42.47
2019-01-11T12:19:11.531Z,42.09
2019-01-11T12:20:11.481Z,41.31
2019-01-11T12:21:11.531Z,41.54
2019-01-11T12:22:11.589Z,41.68
2019-01-11T12:23:11.662Z,42.13
2019-01-11T12:24:11.712Z,41.55
2019-01-11T12:25:11.789Z,41.17
2019-01-11T12:26:11.840Z,41.15
2019-01-11T12:27:11.931Z,41.33
2019-01-11T12:28:11.972Z,41.10
2019-01-11T12:29:12.045Z,40.81
2019-01-11T12:30:12.105Z,40.93
2019-01-11T12:31:12.164Z,40.17
2019-01-11T12:32:12.216Z,39.56
2019-01-11T12:33:12.327Z,39.65
2019-01-11T12:34:12.344Z,39.51
2019-01-11T12:35:12.417Z,39.22
2019-01-11T12:36:12.496Z,39.08
2019-01-11T12:37:12.554Z,38.82
2019-01-11T12:38:13.776Z,38.61
2019-01-11T12:39:12.662Z,39.02
2019-01-11T12:40:12.744Z,39.40
2019-01-11T12:41:12.809Z,39.92
2019-01-11T12:42:13.374Z,39.73
2019-01-11T12:43:12.938Z,40.18
2019-01-11T12:44:13.031Z,40.69
2019-01-11T12:45:13.066Z,40.91
2019-01-11T12:46:13.103Z,40.83
2019-01-11T12:47:13.174Z,40.80
2019-01-11T12:48:13.259Z,41.22
2019-01-11T12:49:13.312Z,41.54
2019-01-11T12:50:13.355Z,42.23
2019-01-11T12:51:13.419Z,42.78
2019-01-11T12:52:13.484Z,42.87
2019-01-11T12:53:13.684Z,42.90